Time;durP1;ratioP1;P1;durP2;ratioP2;P2;SDS_P1;SDS_P2;PMS_P1;PMS_P2;Temp;Humidity;BMP_temperature;BMP_pressure;BME280_temperature;BME280_humidity;BME280_pressure;Samples;Min_cycle;Max_cycle;Signal;HPM_P1;HPM_P2
2023/09/16 00:02:20;;;;;;;12.88;7.20;;;;;;;;;;5090469;28;20055;-59
2023/09/16 00:04:48;;;;;;;14.30;7.65;;;;;;;;;;5090524;28;20051;-59
2023/09/16 00:07:15;;;;;;;11.27;5.32;;;;;;;;;;5081853;28;20413;-59
2023/09/16 00:09:43;;;;;;;9.20;5.88;;;;;;;;;;5074584;28;20063;-59
2023/09/16 00:12:10;;;;;;;9.13;6.30;;;;;;;;;;5075096;28;20060;-59
2023/09/16 00:14:38;;;;;;;9.38;5.68;;;;;;;;;;5075257;28;20478;-59
2023/09/16 00:17:05;;;;;;;8.10;5.03;;;;;;;;;;5095567;28;20055;-59
2023/09/16 00:19:32;;;;;;;10.90;6.72;;;;;;;;;;5095703;28;20056;-59
2023/09/16 00:21:59;;;;;;;8.68;5.35;;;;;;;;;;5095564;28;20401;-59
2023/09/16 00:24:25;;;;;;;9.25;6.13;;;;;;;;;;5095294;28;20489;-59
2023/09/16 00:26:53;;;;;;;8.30;4.70;;;;;;;;;;5095419;28;20056;-59
2023/09/16 00:29:20;;;;;;;8.82;5.40;;;;;;;;;;5093378;28;20508;-59
2023/09/16 00:31:47;;;;;;;7.32;4.78;;;;;;;;;;5091915;28;20507;-59
2023/09/16 00:34:14;;;;;;;6.20;3.55;;;;;;;;;;5095368;28;20055;-59
2023/09/16 00:36:41;;;;;;;6.05;3.25;;;;;;;;;;5094981;28;20071;-60
2023/09/16 00:39:07;;;;;;;6.05;3.65;;;;;;;;;;5094923;28;20048;-59
2023/09/16 00:41:34;;;;;;;5.43;3.15;;;;;;;;;;5092932;28;20048;-59
2023/09/16 00:44:02;;;;;;;7.00;2.80;;;;;;;;;;5095123;28;20346;-60
2023/09/16 00:46:29;;;;;;;3.22;2.15;;;;;;;;;;5076141;28;20071;-59
2023/09/16 00:48:56;;;;;;;4.50;2.72;;;;;;;;;;5074750;28;20048;-59
2023/09/16 00:51:23;;;;;;;3.75;2.75;;;;;;;;;;5077226;28;20055;-60
2023/09/16 00:53:50;;;;;;;4.40;2.40;;;;;;;;;;5081117;28;20053;-60
2023/09/16 00:56:16;;;;;;;3.72;2.50;;;;;;;;;;5085682;28;20063;-59
2023/09/16 00:58:44;;;;;;;4.05;2.03;;;;;;;;;;5095053;28;20477;-59
2023/09/16 01:01:14;;;;;;;4.13;2.45;;;;;;;;;;5085356;28;20051;-58
2023/09/16 01:03:42;;;;;;;3.25;1.70;;;;;;;;;;5094180;28;20131;-59
2023/09/16 01:06:10;;;;;;;5.18;2.67;;;;;;;;;;5080916;28;20064;-61
2023/09/16 01:08:37;;;;;;;5.05;2.33;;;;;;;;;;5073937;28;20158;-59
2023/09/16 01:11:05;;;;;;;4.75;2.35;;;;;;;;;;5073967;28;20056;-60
2023/09/16 01:13:32;;;;;;;5.43;2.67;;;;;;;;;;5074791;28;20052;-60
2023/09/16 01:16:03;;;;;;;4.32;2.67;;;;;;;;;;5082081;28;20425;-59
2023/09/16 01:18:33;;;;;;;5.18;2.70;;;;;;;;;;5094124;28;20063;-59
2023/09/16 01:21:01;;;;;;;3.20;2.17;;;;;;;;;;5094535;28;20477;-59
2023/09/16 01:23:28;;;;;;;5.50;2.60;;;;;;;;;;5093872;28;20055;-59
2023/09/16 01:25:56;;;;;;;4.65;2.20;;;;;;;;;;5094330;28;20055;-59
2023/09/16 01:28:24;;;;;;;5.45;2.00;;;;;;;;;;5094464;28;20044;-59
2023/09/16 01:30:53;;;;;;;3.07;2.13;;;;;;;;;;5084052;28;20052;-59
2023/09/16 01:33:22;;;;;;;2.90;1.95;;;;;;;;;;5073820;28;20053;-59
2023/09/16 01:35:51;;;;;;;3.35;1.98;;;;;;;;;;5073511;28;20060;-59
2023/09/16 01:38:20;;;;;;;3.53;2.05;;;;;;;;;;5073813;28;20052;-58
2023/09/16 01:40:49;;;;;;;4.03;2.47;;;;;;;;;;5073416;28;20055;-59
2023/09/16 01:43:17;;;;;;;3.45;2.67;;;;;;;;;;5073693;28;20048;-59
2023/09/16 01:45:44;;;;;;;2.47;1.65;;;;;;;;;;5074396;28;20412;-59
2023/09/16 01:48:11;;;;;;;3.35;2.10;;;;;;;;;;5072033;28;20048;-59
2023/09/16 01:50:38;;;;;;;3.95;2.10;;;;;;;;;;5073365;28;20064;-60
2023/09/16 01:53:07;;;;;;;5.03;2.42;;;;;;;;;;5073590;28;20048;-59
2023/09/16 01:55:33;;;;;;;3.10;1.70;;;;;;;;;;5073631;28;20056;-59
2023/09/16 01:58:00;;;;;;;5.30;2.25;;;;;;;;;;5073583;28;20063;-58
2023/09/16 02:00:28;;;;;;;5.28;2.05;;;;;;;;;;5074169;28;20055;-59
2023/09/16 02:02:55;;;;;;;3.55;1.70;;;;;;;;;;5073303;28;20406;-59
2023/09/16 02:05:21;;;;;;;3.38;2.17;;;;;;;;;;5073266;28;20489;-59
2023/09/16 02:07:48;;;;;;;2.67;1.75;;;;;;;;;;5072791;28;20062;-60
2023/09/16 02:10:14;;;;;;;8.45;2.00;;;;;;;;;;5073208;28;20068;-59
2023/09/16 02:12:41;;;;;;;2.42;1.63;;;;;;;;;;5073119;28;20466;-60
2023/09/16 02:15:09;;;;;;;2.55;1.42;;;;;;;;;;5073309;28;20055;-59
2023/09/16 02:17:38;;;;;;;3.20;2.05;;;;;;;;;;5084356;28;20055;-60
2023/09/16 02:20:07;;;;;;;3.78;1.73;;;;;;;;;;5093529;28;20052;-60
2023/09/16 02:22:34;;;;;;;3.03;1.83;;;;;;;;;;5093320;28;20056;-59
2023/09/16 02:25:01;;;;;;;2.70;1.73;;;;;;;;;;5093018;28;20473;-59
2023/09/16 02:27:28;;;;;;;4.22;2.65;;;;;;;;;;5093035;28;20048;-59
2023/09/16 02:29:54;;;;;;;2.45;2.00;;;;;;;;;;5090843;28;20480;-60
2023/09/16 02:32:21;;;;;;;3.63;2.10;;;;;;;;;;5072523;28;20048;-59
2023/09/16 02:34:49;;;;;;;3.22;2.13;;;;;;;;;;5072517;28;20056;-59
2023/09/16 02:37:16;;;;;;;4.35;2.47;;;;;;;;;;5072314;28;20059;-59
2023/09/16 02:39:43;;;;;;;2.90;2.00;;;;;;;;;;5072055;28;20061;-60
2023/09/16 02:42:10;;;;;;;3.67;2.10;;;;;;;;;;5071995;28;20486;-60
2023/09/16 02:44:38;;;;;;;4.68;2.22;;;;;;;;;;5072486;28;20045;-61
2023/09/16 02:47:05;;;;;;;5.22;2.28;;;;;;;;;;5072263;28;20056;-60
2023/09/16 02:49:33;;;;;;;4.82;2.33;;;;;;;;;;5086247;28;20052;-60
2023/09/16 02:52:01;;;;;;;3.47;2.20;;;;;;;;;;5092561;28;20055;-60
2023/09/16 02:54:27;;;;;;;3.90;2.10;;;;;;;;;;5092789;28;20077;-60
2023/09/16 02:56:54;;;;;;;6.30;2.67;;;;;;;;;;5092511;28;20052;-60
2023/09/16 02:59:21;;;;;;;3.20;1.80;;;;;;;;;;5090416;28;20052;-60
2023/09/16 03:01:48;;;;;;;2.78;1.88;;;;;;;;;;5072620;28;20060;-61
2023/09/16 03:04:14;;;;;;;4.88;2.63;;;;;;;;;;5072116;28;20060;-60
2023/09/16 03:06:41;;;;;;;2.72;1.77;;;;;;;;;;5083103;28;20497;-60
2023/09/16 03:09:09;;;;;;;5.35;2.63;;;;;;;;;;5092365;28;20059;-60
2023/09/16 03:11:36;;;;;;;4.10;2.20;;;;;;;;;;5092270;28;20432;-60
2023/09/16 03:14:03;;;;;;;4.38;1.75;;;;;;;;;;5091457;28;20059;-60
2023/09/16 03:16:31;;;;;;;2.58;1.40;;;;;;;;;;5072401;28;20520;-60
2023/09/16 03:18:58;;;;;;;3.67;2.05;;;;;;;;;;5072672;28;20060;-60
2023/09/16 03:21:25;;;;;;;3.90;2.03;;;;;;;;;;5072091;28;20057;-60
2023/09/16 03:23:52;;;;;;;2.92;2.55;;;;;;;;;;5072451;28;20053;-61
2023/09/16 03:26:20;;;;;;;3.63;2.08;;;;;;;;;;5072054;28;20063;-60
2023/09/16 03:28:47;;;;;;;2.63;1.80;;;;;;;;;;5076067;28;20063;-60
2023/09/16 03:31:14;;;;;;;4.15;2.28;;;;;;;;;;5076878;28;20057;-60
2023/09/16 03:33:41;;;;;;;3.40;1.90;;;;;;;;;;5076448;28;20063;-60
2023/09/16 03:36:08;;;;;;;3.67;2.30;;;;;;;;;;5075358;28;20059;-60
2023/09/16 03:38:35;;;;;;;4.03;2.20;;;;;;;;;;5076206;28;20067;-61
2023/09/16 03:41:02;;;;;;;5.38;2.65;;;;;;;;;;5074728;28;20060;-60
2023/09/16 03:43:29;;;;;;;3.60;2.00;;;;;;;;;;5076084;28;20045;-61
2023/09/16 03:45:56;;;;;;;3.95;2.30;;;;;;;;;;5075705;28;20051;-60
2023/09/16 03:48:23;;;;;;;3.85;2.03;;;;;;;;;;5076021;28;20064;-61
2023/09/16 03:50:50;;;;;;;4.63;1.90;;;;;;;;;;5075812;28;20053;-61
2023/09/16 03:53:18;;;;;;;3.08;2.47;;;;;;;;;;5075840;28;20052;-60
2023/09/16 03:55:48;;;;;;;3.92;2.30;;;;;;;;;;5075371;28;20052;-60
2023/09/16 03:58:14;;;;;;;3.92;2.15;;;;;;;;;;5075798;28;20359;-60
2023/09/16 04:00:45;;;;;;;4.63;2.47;;;;;;;;;;5089639;28;20051;-60
2023/09/16 04:03:12;;;;;;;2.70;2.00;;;;;;;;;;5095958;28;20052;-61
2023/09/16 04:05:38;;;;;;;6.45;2.35;;;;;;;;;;5095968;28;20059;-60
2023/09/16 04:08:05;;;;;;;3.35;2.28;;;;;;;;;;5095840;28;20056;-61
2023/09/16 04:10:32;;;;;;;5.43;3.00;;;;;;;;;;5095558;28;20052;-60
2023/09/16 04:12:59;;;;;;;4.82;2.42;;;;;;;;;;5095883;28;20059;-60
2023/09/16 04:15:26;;;;;;;3.33;2.15;;;;;;;;;;5087976;28;20506;-60
2023/09/16 04:17:54;;;;;;;3.88;2.72;;;;;;;;;;5075102;28;20048;-61
2023/09/16 04:20:24;;;;;;;6.05;2.03;;;;;;;;;;5075576;28;20052;-60
2023/09/16 04:22:55;;;;;;;4.03;2.03;;;;;;;;;;5075585;28;20059;-61
2023/09/16 04:25:23;;;;;;;3.28;2.10;;;;;;;;;;5075449;28;20052;-60
2023/09/16 04:27:52;;;;;;;2.90;2.08;;;;;;;;;;5075092;28;20056;-60
2023/09/16 04:30:19;;;;;;;;;;;;;;;;;;5075629;28;20501;-61
2023/09/16 04:32:49;;;;;;;3.75;2.38;;;;;;;;;;5075021;28;19921;-60
2023/09/16 04:35:17;;;;;;;2.78;1.77;;;;;;;;;;5074832;28;20053;-60
2023/09/16 04:37:46;;;;;;;3.33;2.22;;;;;;;;;;5080173;28;20397;-60
2023/09/16 04:40:13;;;;;;;3.28;2.03;;;;;;;;;;5094273;28;20048;-60
2023/09/16 04:42:40;;;;;;;2.92;2.10;;;;;;;;;;5094471;28;20052;-60
2023/09/16 04:45:07;;;;;;;4.55;2.50;;;;;;;;;;5085026;28;20469;-60
2023/09/16 04:47:34;;;;;;;3.33;2.13;;;;;;;;;;5074696;28;20048;-60
2023/09/16 04:50:04;;;;;;;2.97;2.13;;;;;;;;;;5074978;28;20053;-60
2023/09/16 04:52:32;;;;;;;3.75;2.33;;;;;;;;;;5074017;28;20477;-60
2023/09/16 04:54:59;;;;;;;4.88;2.00;;;;;;;;;;5074845;28;20079;-60
2023/09/16 04:57:26;;;;;;;3.40;1.70;;;;;;;;;;5074629;28;20071;-61
2023/09/16 04:59:56;;;;;;;3.20;1.85;;;;;;;;;;5079388;28;20075;-60
2023/09/16 05:02:26;;;;;;;3.35;2.13;;;;;;;;;;5089108;28;20052;-59
2023/09/16 05:04:52;;;;;;;4.30;2.13;;;;;;;;;;5094605;28;20051;-60
2023/09/16 05:07:22;;;;;;;3.42;1.90;;;;;;;;;;5094611;28;20056;-60
2023/09/16 05:09:51;;;;;;;3.88;2.25;;;;;;;;;;5090497;28;20060;-60
2023/09/16 05:12:20;;;;;;;4.03;2.15;;;;;;;;;;5086786;28;20472;-61
2023/09/16 05:14:48;;;;;;;3.83;2.33;;;;;;;;;;5077408;28;20048;-60
2023/09/16 05:17:15;;;;;;;3.30;1.98;;;;;;;;;;5074487;28;20068;-60
2023/09/16 05:19:45;;;;;;;4.28;2.53;;;;;;;;;;5074406;28;20059;-61
2023/09/16 05:22:12;;;;;;;3.85;1.90;;;;;;;;;;5074446;28;20465;-61
2023/09/16 05:24:41;;;;;;;4.00;2.33;;;;;;;;;;5074653;28;20048;-61
2023/09/16 05:27:09;;;;;;;5.07;1.83;;;;;;;;;;5092641;28;20056;-61
2023/09/16 05:29:36;;;;;;;3.60;2.30;;;;;;;;;;5089647;28;20064;-60
2023/09/16 05:32:03;;;;;;;2.58;1.70;;;;;;;;;;5093503;28;20051;-60
2023/09/16 05:34:30;;;;;;;4.57;2.58;;;;;;;;;;5094343;28;20044;-60
2023/09/16 05:36:56;;;;;;;4.20;2.40;;;;;;;;;;5094178;28;20059;-61
2023/09/16 05:39:26;;;;;;;3.00;2.15;;;;;;;;;;5094225;28;20067;-61
2023/09/16 05:41:54;;;;;;;2.83;2.42;;;;;;;;;;5093382;28;20055;-60
2023/09/16 05:44:22;;;;;;;3.15;2.20;;;;;;;;;;5090201;28;20044;-61
2023/09/16 05:46:48;;;;;;;4.50;2.28;;;;;;;;;;5093585;28;20058;-61
2023/09/16 05:49:15;;;;;;;4.72;2.45;;;;;;;;;;5093979;28;20052;-60
2023/09/16 05:51:43;;;;;;;3.30;1.90;;;;;;;;;;5084795;28;20509;-60
2023/09/16 05:54:11;;;;;;;2.95;1.83;;;;;;;;;;5082084;28;20053;-61
2023/09/16 05:56:38;;;;;;;4.20;2.17;;;;;;;;;;5088311;28;20421;-61
2023/09/16 05:59:06;;;;;;;3.42;2.30;;;;;;;;;;5081096;28;20059;-60
2023/09/16 06:01:34;;;;;;;4.53;1.80;;;;;;;;;;5085930;28;20413;-61
2023/09/16 06:04:01;;;;;;;7.43;2.78;;;;;;;;;;5094004;28;20048;-60
2023/09/16 06:06:28;;;;;;;4.63;2.22;;;;;;;;;;5092761;28;20051;-61
2023/09/16 06:08:54;;;;;;;2.42;1.95;;;;;;;;;;5093759;28;20056;-61
2023/09/16 06:11:26;;;;;;;4.65;2.13;;;;;;;;;;5093502;28;20526;-61
2023/09/16 06:13:52;;;;;;;2.85;1.98;;;;;;;;;;5081522;28;20044;-61
2023/09/16 06:16:19;;;;;;;2.70;2.03;;;;;;;;;;5072691;28;20057;-60
2023/09/16 06:18:47;;;;;;;2.97;2.08;;;;;;;;;;5072903;28;20049;-59
2023/09/16 06:21:15;;;;;;;3.50;2.08;;;;;;;;;;5072965;28;20062;-60
2023/09/16 06:23:42;;;;;;;2.63;1.80;;;;;;;;;;5078496;28;20060;-60
2023/09/16 06:26:09;;;;;;;3.53;2.35;;;;;;;;;;5089127;28;20051;-60
2023/09/16 06:28:36;;;;;;;4.47;2.33;;;;;;;;;;5089896;28;20041;-60
2023/09/16 06:31:03;;;;;;;3.95;1.92;;;;;;;;;;5084956;28;20056;-59
2023/09/16 06:33:29;;;;;;;3.42;2.65;;;;;;;;;;5077673;28;20048;-60
2023/09/16 06:35:57;;;;;;;4.30;2.08;;;;;;;;;;5082199;28;20551;-60
2023/09/16 06:38:24;;;;;;;4.32;1.95;;;;;;;;;;5087727;28;20051;-60
2023/09/16 06:40:51;;;;;;;3.63;1.75;;;;;;;;;;5074785;28;20048;-49
2023/09/16 06:43:18;;;;;;;2.47;1.35;;;;;;;;;;5077588;28;20063;-51
2023/09/16 06:45:46;;;;;;;3.75;1.92;;;;;;;;;;5088702;28;20056;-52
2023/09/16 06:48:12;;;;;;;3.70;2.25;;;;;;;;;;5087617;28;20052;-52
2023/09/16 06:50:39;;;;;;;5.47;2.17;;;;;;;;;;5085258;28;20054;-51
2023/09/16 06:53:07;;;;;;;4.03;1.73;;;;;;;;;;5086355;28;20063;-51
2023/09/16 06:55:34;;;;;;;3.95;1.52;;;;;;;;;;5086138;28;20389;-53
2023/09/16 06:58:04;;;;;;;2.97;1.95;;;;;;;;;;5086295;28;20431;-51
2023/09/16 07:00:30;;;;;;;;;;;;;;;;;;5085666;28;20063;-52
2023/09/16 07:02:58;;;;;;;3.35;2.00;;;;;;;;;;5074954;28;19935;-53
2023/09/16 07:05:25;;;;;;;3.33;1.90;;;;;;;;;;5080626;28;20055;-50
2023/09/16 07:07:52;;;;;;;3.55;1.75;;;;;;;;;;5082708;28;20051;-51
2023/09/16 07:10:21;;;;;;;2.83;1.75;;;;;;;;;;5085922;28;20060;-52
2023/09/16 07:12:47;;;;;;;6.73;2.10;;;;;;;;;;5081898;28;20067;-51
2023/09/16 07:15:15;;;;;;;3.70;2.05;;;;;;;;;;5085168;28;20082;-53
2023/09/16 07:17:42;;;;;;;2.65;1.75;;;;;;;;;;5081971;28;20481;-52
2023/09/16 07:20:09;;;;;;;2.67;1.63;;;;;;;;;;5080278;28;20485;-52
2023/09/16 07:22:36;;;;;;;3.75;1.90;;;;;;;;;;5083032;28;20048;-52
2023/09/16 07:25:02;;;;;;;2.67;1.60;;;;;;;;;;5081197;28;20056;-52
2023/09/16 07:27:31;;;;;;;3.53;1.77;;;;;;;;;;5078562;28;20520;-51
2023/09/16 07:29:58;;;;;;;3.08;2.10;;;;;;;;;;5078225;28;20118;-52
2023/09/16 07:32:25;;;;;;;2.83;1.65;;;;;;;;;;5079950;28;20071;-54
2023/09/16 07:34:51;;;;;;;4.28;1.63;;;;;;;;;;5090613;28;20060;-48
2023/09/16 07:37:19;;;;;;;2.80;1.77;;;;;;;;;;5072010;28;20056;-52
2023/09/16 07:39:47;;;;;;;3.80;1.55;;;;;;;;;;5073039;28;20071;-55
2023/09/16 07:42:15;;;;;;;3.42;1.25;;;;;;;;;;5077736;28;20061;-52
2023/09/16 07:44:43;;;;;;;2.47;1.40;;;;;;;;;;5077425;28;20049;-53
2023/09/16 07:47:09;;;;;;;3.35;1.40;;;;;;;;;;5073662;28;20458;-55
2023/09/16 07:49:36;;;;;;;4.20;1.35;;;;;;;;;;5088234;28;20065;-54
2023/09/16 07:52:03;;;;;;;2.33;1.40;;;;;;;;;;5082186;28;20064;-53
2023/09/16 07:54:30;;;;;;;2.28;1.20;;;;;;;;;;5074120;28;20045;-55
2023/09/16 07:56:57;;;;;;;2.28;1.05;;;;;;;;;;5076415;28;20048;-55
2023/09/16 07:59:23;;;;;;;2.13;1.33;;;;;;;;;;5072941;28;20063;-53
2023/09/16 08:01:52;;;;;;;2.55;1.13;;;;;;;;;;5088687;28;20052;-54
2023/09/16 08:04:18;;;;;;;1.45;1.10;;;;;;;;;;5077928;28;20044;-55
2023/09/16 08:06:49;;;;;;;1.80;1.17;;;;;;;;;;5083950;28;20048;-53
2023/09/16 08:09:16;;;;;;;2.00;0.95;;;;;;;;;;5090618;28;20048;-53
2023/09/16 08:11:43;;;;;;;1.60;1.23;;;;;;;;;;5084546;28;20567;-55
2023/09/16 08:14:09;;;;;;;2.22;1.10;;;;;;;;;;5081656;28;20048;-53
2023/09/16 08:16:36;;;;;;;1.77;0.93;;;;;;;;;;5085361;28;20059;-53
2023/09/16 08:19:04;;;;;;;1.40;0.93;;;;;;;;;;5088380;28;20052;-53
2023/09/16 08:21:31;;;;;;;1.92;1.25;;;;;;;;;;5082891;28;20056;-53
2023/09/16 08:23:58;;;;;;;2.08;1.27;;;;;;;;;;5090577;28;20240;-48
2023/09/16 08:26:25;;;;;;;2.08;1.30;;;;;;;;;;5085278;28;20434;-53
2023/09/16 08:28:51;;;;;;;2.75;1.20;;;;;;;;;;5086435;28;20056;-56
2023/09/16 08:31:18;;;;;;;2.13;1.10;;;;;;;;;;5086273;28;20502;-56
2023/09/16 08:33:45;;;;;;;1.95;1.02;;;;;;;;;;5088867;28;20504;-63
2023/09/16 08:36:13;;;;;;;1.50;1.02;;;;;;;;;;5085173;28;20052;-63
2023/09/16 08:38:40;;;;;;;1.67;1.10;;;;;;;;;;5084747;28;20477;-63
2023/09/16 08:41:11;;;;;;;1.90;1.30;;;;;;;;;;5089906;28;20059;-64
2023/09/16 08:43:40;;;;;;;2.40;1.02;;;;;;;;;;5083355;28;20048;-63
2023/09/16 08:46:09;;;;;;;2.38;1.48;;;;;;;;;;5093010;28;20055;-63
2023/09/16 08:48:40;;;;;;;1.75;1.00;;;;;;;;;;5090378;28;20052;-63
2023/09/16 08:51:09;;;;;;;1.60;1.10;;;;;;;;;;5088284;28;20118;-62
2023/09/16 08:53:39;;;;;;;1.98;1.30;;;;;;;;;;5091707;28;20056;-63
2023/09/16 08:56:06;;;;;;;2.15;1.20;;;;;;;;;;5089636;28;20044;-63
2023/09/16 08:58:33;;;;;;;1.60;1.27;;;;;;;;;;5083867;28;20749;-63
2023/09/16 09:01:02;;;;;;;;;;;;;;;;;;5085708;28;20416;-62
2023/09/16 09:03:30;;;;;;;1.63;1.20;;;;;;;;;;5081264;28;19930;-63
2023/09/16 09:05:56;;;;;;;;;;;;;;;;;;5073200;28;20507;-63
2023/09/16 09:08:23;;;;;;;1.77;1.10;;;;;;;;;;5086071;28;20392;-62
2023/09/16 09:10:51;;;;;;;1.75;1.10;;;;;;;;;;5087263;28;20420;-63
2023/09/16 09:13:19;;;;;;;2.35;1.48;;;;;;;;;;5078204;28;20067;-62
2023/09/16 09:15:47;;;;;;;2.05;1.33;;;;;;;;;;5080098;28;20385;-62
2023/09/16 09:18:16;;;;;;;1.58;1.30;;;;;;;;;;5089601;28;20048;-62
2023/09/16 09:20:43;;;;;;;1.75;1.10;;;;;;;;;;5088066;28;20059;-63
2023/09/16 09:23:10;;;;;;;2.07;1.63;;;;;;;;;;5086210;28;20500;-63
2023/09/16 09:25:37;;;;;;;2.87;1.20;;;;;;;;;;5076194;28;20832;-63
2023/09/16 09:28:05;;;;;;;1.88;1.08;;;;;;;;;;5086170;28;20060;-63
2023/09/16 09:30:32;;;;;;;2.05;1.17;;;;;;;;;;5084097;28;20059;-62
2023/09/16 09:32:59;;;;;;;2.08;1.40;;;;;;;;;;5091241;28;20060;-63
2023/09/16 09:35:28;;;;;;;1.58;1.13;;;;;;;;;;5083670;28;20063;-63
2023/09/16 09:37:56;;;;;;;2.47;1.40;;;;;;;;;;5086528;28;20059;-64
2023/09/16 09:40:23;;;;;;;2.53;1.48;;;;;;;;;;5085173;28;20055;-64
2023/09/16 09:42:50;;;;;;;2.40;1.58;;;;;;;;;;5081196;28;20056;-63
2023/09/16 09:45:19;;;;;;;2.03;1.08;;;;;;;;;;5081124;28;20048;-63
2023/09/16 09:47:47;;;;;;;3.08;1.30;;;;;;;;;;5089354;28;20043;-64
2023/09/16 09:50:14;;;;;;;2.03;1.10;;;;;;;;;;5084378;28;20520;-64
2023/09/16 09:52:45;;;;;;;1.92;1.50;;;;;;;;;;5090841;28;20048;-63
2023/09/16 09:55:13;;;;;;;1.95;1.35;;;;;;;;;;5088259;28;20048;-64
2023/09/16 09:57:39;;;;;;;;;;;;;;;;;;5082456;28;20424;-63
2023/09/16 10:00:07;;;;;;;1.67;1.08;;;;;;;;;;5088257;28;19919;-64
2023/09/16 10:02:35;;;;;;;1.80;1.50;;;;;;;;;;5086540;28;20417;-63
2023/09/16 10:05:02;;;;;;;1.75;1.35;;;;;;;;;;5084563;28;20052;-64
2023/09/16 10:07:29;;;;;;;2.17;1.30;;;;;;;;;;5085302;28;20417;-63
2023/09/16 10:09:56;;;;;;;1.95;1.17;;;;;;;;;;5082367;28;20063;-63
2023/09/16 10:12:23;;;;;;;1.92;1.23;;;;;;;;;;5085536;28;20063;-62
2023/09/16 10:14:51;;;;;;;1.88;1.30;;;;;;;;;;5077543;28;20773;-63
2023/09/16 10:17:18;;;;;;;1.92;1.40;;;;;;;;;;5083422;28;20051;-62
2023/09/16 10:19:46;;;;;;;1.50;1.10;;;;;;;;;;5071605;28;20068;-62
2023/09/16 10:22:13;;;;;;;1.50;1.10;;;;;;;;;;5079267;28;20382;-63
2023/09/16 10:24:40;;;;;;;2.33;1.30;;;;;;;;;;5082062;28;20052;-62
2023/09/16 10:27:06;;;;;;;;;;;;;;;;;;5092055;28;20082;-62
2023/09/16 10:29:33;;;;;;;2.38;1.42;;;;;;;;;;5081571;28;19927;-62
2023/09/16 10:32:00;;;;;;;1.73;1.23;;;;;;;;;;5078626;28;20048;-62
2023/09/16 10:34:28;;;;;;;1.88;1.58;;;;;;;;;;5082426;28;20461;-60
2023/09/16 10:36:57;;;;;;;1.77;1.10;;;;;;;;;;5089988;28;20044;-61
2023/09/16 10:39:23;;;;;;;3.08;1.63;;;;;;;;;;5093218;28;20512;-62
2023/09/16 10:41:51;;;;;;;1.92;1.23;;;;;;;;;;5092558;28;20063;-63
2023/09/16 10:44:18;;;;;;;2.65;1.10;;;;;;;;;;5081976;28;20052;-62
2023/09/16 10:46:46;;;;;;;1.65;1.10;;;;;;;;;;5072211;28;20059;-62
2023/09/16 10:49:13;;;;;;;2.55;1.35;;;;;;;;;;5072392;28;20494;-61
2023/09/16 10:51:40;;;;;;;1.65;1.40;;;;;;;;;;5072449;28;20063;-61
2023/09/16 10:54:10;;;;;;;1.80;1.27;;;;;;;;;;5083969;28;20059;-60
2023/09/16 10:56:40;;;;;;;2.30;1.55;;;;;;;;;;5087279;28;20079;-62
2023/09/16 10:59:08;;;;;;;2.15;1.58;;;;;;;;;;5085729;28;20052;-62
2023/09/16 11:01:36;;;;;;;1.90;1.40;;;;;;;;;;5071966;28;20488;-63
2023/09/16 11:04:08;;;;;;;2.45;1.50;;;;;;;;;;5071737;28;20101;-62
2023/09/16 11:06:35;;;;;;;1.85;1.40;;;;;;;;;;5071443;28;20060;-62
2023/09/16 11:09:02;;;;;;;3.38;1.75;;;;;;;;;;5072478;28;20067;-63
2023/09/16 11:11:28;;;;;;;;;;;;;;;;;;5080158;28;20052;-62
2023/09/16 11:13:56;;;;;;;2.42;1.80;;;;;;;;;;5074606;28;19927;-62
2023/09/16 11:16:24;;;;;;;3.28;1.70;;;;;;;;;;5072469;28;20048;-60
2023/09/16 11:18:52;;;;;;;3.45;1.50;;;;;;;;;;5072379;28;20052;-61
2023/09/16 11:21:20;;;;;;;2.38;1.02;;;;;;;;;;5072391;28;20489;-61
2023/09/16 11:23:48;;;;;;;1.77;1.40;;;;;;;;;;5072581;28;20052;-61
2023/09/16 11:26:17;;;;;;;2.15;1.35;;;;;;;;;;5072145;28;20405;-61
2023/09/16 11:28:44;;;;;;;1.30;1.02;;;;;;;;;;5073412;28;20477;-61
2023/09/16 11:31:11;;;;;;;;;;;;;;;;;;5072854;28;20136;-61
2023/09/16 11:33:39;;;;;;;1.90;1.40;;;;;;;;;;5072509;28;19920;-61
2023/09/16 11:36:07;;;;;;;1.67;1.20;;;;;;;;;;5072328;28;20045;-62
2023/09/16 11:38:33;;;;;;;1.52;1.40;;;;;;;;;;5072183;28;20071;-61
2023/09/16 11:41:08;;;;;;;2.45;1.65;;;;;;;;;;5071916;28;20056;-61
2023/09/16 11:43:35;;;;;;;1.60;1.20;;;;;;;;;;5074962;28;20401;-61
2023/09/16 11:46:02;;;;;;;;;;;;;;;;;;5089573;28;20044;-61
2023/09/16 11:48:36;;;;;;;2.20;1.70;;;;;;;;;;5078206;28;19927;-61
2023/09/16 11:51:06;;;;;;;1.80;1.40;;;;;;;;;;5075808;28;20052;-61
2023/09/16 11:53:33;;;;;;;1.70;1.30;;;;;;;;;;5075962;28;20053;-61
2023/09/16 11:56:01;;;;;;;2.92;1.60;;;;;;;;;;5075404;28;20052;-61
2023/09/16 11:58:28;;;;;;;3.22;1.17;;;;;;;;;;5080282;28;20105;-61
2023/09/16 12:00:54;;;;;;;2.28;1.52;;;;;;;;;;5095860;28;20079;-60
2023/09/16 12:03:22;;;;;;;2.63;1.58;;;;;;;;;;5096373;28;20076;-61
2023/09/16 12:05:50;;;;;;;2.65;1.52;;;;;;;;;;5095916;28;20055;-61
2023/09/16 12:08:18;;;;;;;2.03;1.60;;;;;;;;;;5093238;28;20050;-61
2023/09/16 12:10:46;;;;;;;2.38;1.30;;;;;;;;;;5095814;28;20052;-61
2023/09/16 12:13:12;;;;;;;1.85;1.38;;;;;;;;;;5091676;28;20063;-61
2023/09/16 12:15:40;;;;;;;1.85;1.38;;;;;;;;;;5095880;28;20052;-60
2023/09/16 12:18:06;;;;;;;;;;;;;;;;;;5096006;28;20056;-61
2023/09/16 12:20:33;;;;;;;1.80;1.38;;;;;;;;;;5095150;28;19931;-61
2023/09/16 12:22:59;;;;;;;1.95;1.50;;;;;;;;;;5095144;28;20059;-61
2023/09/16 12:25:38;;;;;;;2.10;1.55;;;;;;;;;;5092388;28;20066;-61
2023/09/16 12:28:05;;;;;;;2.72;1.67;;;;;;;;;;5092212;28;20059;-61
2023/09/16 12:30:32;;;;;;;2.25;1.38;;;;;;;;;;5094234;28;20052;-61
2023/09/16 12:32:59;;;;;;;2.00;1.65;;;;;;;;;;5085669;28;20059;-60
2023/09/16 12:35:26;;;;;;;3.20;1.63;;;;;;;;;;5074592;28;20063;-61
2023/09/16 12:37:52;;;;;;;2.13;1.25;;;;;;;;;;5074827;28;20056;-61
2023/09/16 12:40:19;;;;;;;1.90;1.33;;;;;;;;;;5075047;28;20056;-61
2023/09/16 12:42:47;;;;;;;1.70;1.20;;;;;;;;;;5075016;28;20401;-61
2023/09/16 12:45:14;;;;;;;1.80;1.30;;;;;;;;;;5094217;28;20047;-61
2023/09/16 12:47:41;;;;;;;1.90;1.40;;;;;;;;;;5094955;28;20044;-61
2023/09/16 12:50:08;;;;;;;2.53;1.33;;;;;;;;;;5094703;28;20063;-61
2023/09/16 12:52:35;;;;;;;2.00;1.38;;;;;;;;;;5094784;28;20378;-61
2023/09/16 12:55:01;;;;;;;2.30;1.85;;;;;;;;;;5094732;28;20079;-61
2023/09/16 12:57:28;;;;;;;2.72;1.60;;;;;;;;;;5094516;28;20488;-61
2023/09/16 13:00:03;;;;;;;1.98;1.50;;;;;;;;;;5088683;28;20056;-61
2023/09/16 13:02:29;;;;;;;2.20;1.65;;;;;;;;;;5094399;28;20059;-61
2023/09/16 13:05:10;;;;;;;2.13;1.58;;;;;;;;;;5094783;28;20408;-61
2023/09/16 13:07:37;;;;;;;2.30;1.70;;;;;;;;;;5094503;28;20044;-60
2023/09/16 13:10:05;;;;;;;1.58;1.30;;;;;;;;;;5094727;28;20401;-60
2023/09/16 13:12:35;;;;;;;2.97;1.98;;;;;;;;;;5090522;28;20056;-61
2023/09/16 13:15:03;;;;;;;2.22;1.73;;;;;;;;;;5078679;28;20060;-60
2023/09/16 13:17:32;;;;;;;2.20;1.42;;;;;;;;;;5091589;28;20055;-61
2023/09/16 13:20:00;;;;;;;1.85;1.38;;;;;;;;;;5089840;28;20051;-61
2023/09/16 13:22:27;;;;;;;2.45;1.38;;;;;;;;;;5088380;28;20044;-63
2023/09/16 13:24:54;;;;;;;2.07;1.53;;;;;;;;;;5081929;28;20053;-62
2023/09/16 13:27:21;;;;;;;2.90;1.77;;;;;;;;;;5079763;28;20501;-61
2023/09/16 13:29:48;;;;;;;2.13;1.40;;;;;;;;;;5082926;28;20485;-61
2023/09/16 13:32:16;;;;;;;3.63;1.50;;;;;;;;;;5088487;28;20055;-61
2023/09/16 13:34:44;;;;;;;3.13;1.67;;;;;;;;;;5085532;28;20051;-62
2023/09/16 13:37:11;;;;;;;1.73;1.30;;;;;;;;;;5084556;28;20044;-61
2023/09/16 13:39:41;;;;;;;2.00;1.52;;;;;;;;;;5087020;28;20044;-61
2023/09/16 13:42:08;;;;;;;2.45;1.80;;;;;;;;;;5088381;28;20055;-62
2023/09/16 13:44:34;;;;;;;2.20;1.40;;;;;;;;;;5078105;28;20535;-61
2023/09/16 13:47:01;;;;;;;2.05;1.60;;;;;;;;;;5087075;28;20504;-61
2023/09/16 13:49:30;;;;;;;2.30;1.58;;;;;;;;;;5080009;28;20535;-61
2023/09/16 13:51:56;;;;;;;2.08;1.63;;;;;;;;;;5086094;28;20062;-61
2023/09/16 13:54:23;;;;;;;2.85;1.90;;;;;;;;;;5075057;28;20056;-62
2023/09/16 13:56:50;;;;;;;2.28;1.33;;;;;;;;;;5083701;28;20404;-62
2023/09/16 13:59:17;;;;;;;2.83;1.70;;;;;;;;;;5081659;28;20497;-61
2023/09/16 14:01:44;;;;;;;2.50;1.70;;;;;;;;;;5077909;28;20052;-61
2023/09/16 14:04:10;;;;;;;2.63;1.50;;;;;;;;;;5081758;28;20055;-61
2023/09/16 14:06:39;;;;;;;2.97;1.58;;;;;;;;;;5082344;28;20059;-61
2023/09/16 14:09:05;;;;;;;2.10;1.48;;;;;;;;;;5081308;28;20142;-61
2023/09/16 14:11:32;;;;;;;2.50;1.83;;;;;;;;;;5082227;28;20048;-62
2023/09/16 14:13:59;;;;;;;2.25;1.58;;;;;;;;;;5074042;28;20060;-62
2023/09/16 14:16:26;;;;;;;2.05;1.40;;;;;;;;;;5078868;28;20075;-62
2023/09/16 14:18:52;;;;;;;2.65;1.60;;;;;;;;;;5090916;28;20151;-61
2023/09/16 14:21:19;;;;;;;2.83;1.67;;;;;;;;;;5092851;28;20056;-62
2023/09/16 14:23:47;;;;;;;2.63;1.60;;;;;;;;;;5093411;28;20052;-61
2023/09/16 14:26:14;;;;;;;2.47;1.63;;;;;;;;;;5093045;28;20063;-61
2023/09/16 14:28:41;;;;;;;2.08;1.50;;;;;;;;;;5091552;28;20048;-62
2023/09/16 14:31:08;;;;;;;3.10;1.60;;;;;;;;;;5087907;28;20398;-62
2023/09/16 14:33:35;;;;;;;2.10;1.50;;;;;;;;;;5073035;28;20056;-62
2023/09/16 14:36:03;;;;;;;2.00;1.50;;;;;;;;;;5072805;28;20053;-62
2023/09/16 14:38:30;;;;;;;3.60;1.45;;;;;;;;;;5084741;28;20486;-62
2023/09/16 14:41:02;;;;;;;1.90;1.40;;;;;;;;;;5092294;28;20056;-62
2023/09/16 14:43:29;;;;;;;2.13;1.40;;;;;;;;;;5093089;28;20377;-63
2023/09/16 14:45:57;;;;;;;2.17;1.67;;;;;;;;;;5088955;28;20063;-62
2023/09/16 14:48:23;;;;;;;3.53;1.65;;;;;;;;;;5091328;28;20338;-63